sensor_id;sensor_type;location;lat;lon;timestamp;pressure;altitude;pressure_sealevel;temperature;humidity
60101;BME280;45978;53.646;55.930;2022-11-20T00:00:52;100606.03;;;-6.55;75.95
60101;BME280;45978;53.646;55.930;2022-11-20T00:01:53;100613.53;;;-6.58;76.34
60101;BME280;45978;53.646;55.930;2022-11-20T00:02:54;100610.16;;;-6.57;77.07
60101;BME280;45978;53.646;55.930;2022-11-20T00:03:57;100615.44;;;-6.54;76.60
60101;BME280;45978;53.646;55.930;2022-11-20T00:04:58;100610.41;;;-6.52;76.47
60101;BME280;45978;53.646;55.930;2022-11-20T00:06:07;100612.09;;;-6.53;76.80
60101;BME280;45978;53.646;55.930;2022-11-20T00:07:09;100603.22;;;-6.60;76.50
60101;BME280;45978;53.646;55.930;2022-11-20T00:08:12;100615.63;;;-6.51;76.70
60101;BME280;45978;53.646;55.930;2022-11-20T00:09:14;100605.31;;;-6.52;76.91
60101;BME280;45978;53.646;55.930;2022-11-20T00:10:16;100605.13;;;-6.55;76.64
60101;BME280;45978;53.646;55.930;2022-11-20T00:11:22;100578.22;;;-6.65;76.77
60101;BME280;45978;53.646;55.930;2022-11-20T00:12:25;100587.81;;;-6.61;76.61
60101;BME280;45978;53.646;55.930;2022-11-20T00:13:28;100598.38;;;-6.55;76.59
60101;BME280;45978;53.646;55.930;2022-11-20T00:14:30;100596.91;;;-6.50;76.77
60101;BME280;45978;53.646;55.930;2022-11-20T00:15:32;100583.91;;;-6.54;76.94
60101;BME280;45978;53.646;55.930;2022-11-20T00:16:33;100604.13;;;-6.43;76.78
60101;BME280;45978;53.646;55.930;2022-11-20T00:17:34;100596.44;;;-6.43;76.34
60101;BME280;45978;53.646;55.930;2022-11-20T00:18:37;100611.38;;;-6.34;76.10
60101;BME280;45978;53.646;55.930;2022-11-20T00:19:38;100590.63;;;-6.40;76.33
60101;BME280;45978;53.646;55.930;2022-11-20T00:20:39;100591.44;;;-6.41;76.04
60101;BME280;45978;53.646;55.930;2022-11-20T00:21:40;100603.56;;;-6.37;76.03
60101;BME280;45978;53.646;55.930;2022-11-20T00:22:42;100599.16;;;-6.40;76.36
60101;BME280;45978;53.646;55.930;2022-11-20T00:23:44;100599.97;;;-6.41;76.09
60101;BME280;45978;53.646;55.930;2022-11-20T00:24:45;100600.59;;;-6.45;75.79
60101;BME280;45978;53.646;55.930;2022-11-20T00:25:46;100596.91;;;-6.50;76.41
60101;BME280;45978;53.646;55.930;2022-11-20T00:26:48;100602.25;;;-6.45;75.72
60101;BME280;45978;53.646;55.930;2022-11-20T00:27:50;100594.28;;;-6.51;75.97
60101;BME280;45978;53.646;55.930;2022-11-20T00:28:57;100600.94;;;-6.55;75.46
60101;BME280;45978;53.646;55.930;2022-11-20T00:29:59;100590.53;;;-6.58;75.46
60101;BME280;45978;53.646;55.930;2022-11-20T00:31:05;100587.16;;;-6.57;75.67
60101;BME280;45978;53.646;55.930;2022-11-20T00:32:07;100590.22;;;-6.48;76.01
60101;BME280;45978;53.646;55.930;2022-11-20T00:33:08;100578.00;;;-6.53;76.07
60101;BME280;45978;53.646;55.930;2022-11-20T00:34:09;100584.38;;;-6.45;75.39
60101;BME280;45978;53.646;55.930;2022-11-20T00:35:12;100587.34;;;-6.54;75.48
60101;BME280;45978;53.646;55.930;2022-11-20T00:36:14;100592.94;;;-6.45;75.33
60101;BME280;45978;53.646;55.930;2022-11-20T00:37:16;100575.44;;;-6.53;75.26
60101;BME280;45978;53.646;55.930;2022-11-20T00:38:19;100584.00;;;-6.53;75.95
60101;BME280;45978;53.646;55.930;2022-11-20T00:39:24;100581.09;;;-6.59;75.28
60101;BME280;45978;53.646;55.930;2022-11-20T00:40:27;100576.81;;;-6.60;75.03
60101;BME280;45978;53.646;55.930;2022-11-20T00:41:31;100579.75;;;-6.69;75.95
60101;BME280;45978;53.646;55.930;2022-11-20T00:42:35;100577.78;;;-6.74;75.36
60101;BME280;45978;53.646;55.930;2022-11-20T00:43:38;100566.34;;;-6.81;75.31
60101;BME280;45978;53.646;55.930;2022-11-20T00:44:39;100582.69;;;-6.78;75.25
60101;BME280;45978;53.646;55.930;2022-11-20T00:45:40;100581.56;;;-6.83;75.62
60101;BME280;45978;53.646;55.930;2022-11-20T00:46:41;100571.75;;;-6.91;76.02
60101;BME280;45978;53.646;55.930;2022-11-20T00:47:44;100576.94;;;-6.90;76.14
60101;BME280;45978;53.646;55.930;2022-11-20T00:48:45;100590.81;;;-6.85;75.73
60101;BME280;45978;53.646;55.930;2022-11-20T00:49:47;100595.94;;;-6.85;76.24
60101;BME280;45978;53.646;55.930;2022-11-20T00:50:49;100598.16;;;-6.91;75.89
60101;BME280;45978;53.646;55.930;2022-11-20T00:51:51;100582.81;;;-7.07;75.58
60101;BME280;45978;53.646;55.930;2022-11-20T00:52:52;100592.22;;;-7.06;75.42
60101;BME280;45978;53.646;55.930;2022-11-20T00:53:56;100593.28;;;-7.03;76.16
60101;BME280;45978;53.646;55.930;2022-11-20T00:54:58;100596.31;;;-6.93;75.18
60101;BME280;45978;53.646;55.930;2022-11-20T00:56:02;100616.44;;;-6.83;76.24
60101;BME280;45978;53.646;55.930;2022-11-20T00:57:03;100613.75;;;-6.86;75.76
60101;BME280;45978;53.646;55.930;2022-11-20T00:58:05;100597.19;;;-6.93;75.40
60101;BME280;45978;53.646;55.930;2022-11-20T00:59:08;100607.28;;;-6.80;75.34
60101;BME280;45978;53.646;55.930;2022-11-20T01:00:11;100610.78;;;-6.78;76.01
60101;BME280;45978;53.646;55.930;2022-11-20T01:02:18;100594.59;;;-6.78;75.49
60101;BME280;45978;53.646;55.930;2022-11-20T01:03:19;100610.38;;;-6.69;75.44
60101;BME280;45978;53.646;55.930;2022-11-20T01:04:20;100613.28;;;-6.63;74.96
60101;BME280;45978;53.646;55.930;2022-11-20T01:05:22;100604.25;;;-6.72;74.81
60101;BME280;45978;53.646;55.930;2022-11-20T01:07:28;100625.56;;;-6.55;74.69
60101;BME280;45978;53.646;55.930;2022-11-20T01:08:34;100617.81;;;-6.57;74.66
60101;BME280;45978;53.646;55.930;2022-11-20T01:09:36;100625.84;;;-6.51;74.93
60101;BME280;45978;53.646;55.930;2022-11-20T01:10:37;100610.78;;;-6.61;74.67
60101;BME280;45978;53.646;55.930;2022-11-20T01:11:41;100608.41;;;-6.58;74.64
60101;BME280;45978;53.646;55.930;2022-11-20T01:12:43;100608.50;;;-6.57;74.23
60101;BME280;45978;53.646;55.930;2022-11-20T01:14:06;100598.97;;;-6.59;74.34
60101;BME280;45978;53.646;55.930;2022-11-20T01:15:08;100607.31;;;-6.47;75.26
60101;BME280;45978;53.646;55.930;2022-11-20T01:16:19;100605.41;;;-6.51;74.37
60101;BME280;45978;53.646;55.930;2022-11-20T01:17:26;100604.81;;;-6.45;75.08
60101;BME280;45978;53.646;55.930;2022-11-20T01:18:27;100593.00;;;-6.60;74.92
60101;BME280;45978;53.646;55.930;2022-11-20T01:19:28;100597.00;;;-6.48;74.51
60101;BME280;45978;53.646;55.930;2022-11-20T01:20:30;100596.13;;;-6.49;74.20
60101;BME280;45978;53.646;55.930;2022-11-20T01:21:36;100601.47;;;-6.44;74.28
60101;BME280;45978;53.646;55.930;2022-11-20T01:22:38;100602.19;;;-6.47;73.93
60101;BME280;45978;53.646;55.930;2022-11-20T01:23:41;100618.94;;;-6.35;74.05
60101;BME280;45978;53.646;55.930;2022-11-20T01:24:43;100625.19;;;-6.30;74.41
60101;BME280;45978;53.646;55.930;2022-11-20T01:25:45;100603.81;;;-6.49;74.43
60101;BME280;45978;53.646;55.930;2022-11-20T01:26:48;100609.22;;;-6.43;73.40
60101;BME280;45978;53.646;55.930;2022-11-20T01:27:51;100623.91;;;-6.39;73.96
60101;BME280;45978;53.646;55.930;2022-11-20T01:28:54;100613.69;;;-6.39;73.23
60101;BME280;45978;53.646;55.930;2022-11-20T01:29:57;100611.44;;;-6.32;74.26
60101;BME280;45978;53.646;55.930;2022-11-20T01:30:58;100620.38;;;-6.24;74.30
60101;BME280;45978;53.646;55.930;2022-11-20T01:32:00;100625.75;;;-6.20;73.56
60101;BME280;45978;53.646;55.930;2022-11-20T01:33:01;100621.50;;;-6.19;73.86
60101;BME280;45978;53.646;55.930;2022-11-20T01:34:06;100618.31;;;-6.15;73.90
60101;BME280;45978;53.646;55.930;2022-11-20T01:35:07;100624.38;;;-6.13;73.06
60101;BME280;45978;53.646;55.930;2022-11-20T01:36:11;100618.41;;;-6.13;73.24
60101;BME280;45978;53.646;55.930;2022-11-20T01:37:13;100619.19;;;-6.14;73.42
60101;BME280;45978;53.646;55.930;2022-11-20T01:38:15;100607.28;;;-6.14;73.41
60101;BME280;45978;53.646;55.930;2022-11-20T01:39:19;100618.78;;;-6.06;73.23
60101;BME280;45978;53.646;55.930;2022-11-20T01:40:20;100614.38;;;-6.08;73.66
60101;BME280;45978;53.646;55.930;2022-11-20T01:41:22;100615.59;;;-6.02;72.98
60101;BME280;45978;53.646;55.930;2022-11-20T01:43:18;100608.09;;;-6.15;73.04
60101;BME280;45978;53.646;55.930;2022-11-20T01:44:48;100611.72;;;-6.10;73.49
60101;BME280;45978;53.646;55.930;2022-11-20T01:46:15;100619.78;;;-6.02;72.70
60101;BME280;45978;53.646;55.930;2022-11-20T01:47:35;100612.84;;;-6.05;72.80
60101;BME280;45978;53.646;55.930;2022-11-20T01:49:05;100610.22;;;-6.06;72.49
60101;BME280;45978;53.646;55.930;2022-11-20T01:50:29;100623.16;;;-6.03;73.02
60101;BME280;45978;53.646;55.930;2022-11-20T01:51:49;100608.31;;;-6.10;72.98
60101;BME280;45978;53.646;55.930;2022-11-20T01:53:03;100632.28;;;-6.08;72.69
60101;BME280;45978;53.646;55.930;2022-11-20T01:54:11;100614.63;;;-6.20;72.88
60101;BME280;45978;53.646;55.930;2022-11-20T01:55:26;100621.44;;;-6.21;73.11
60101;BME280;45978;53.646;55.930;2022-11-20T01:56:34;100620.38;;;-6.24;73.10
60101;BME280;45978;53.646;55.930;2022-11-20T01:57:38;100626.31;;;-6.25;73.74
60101;BME280;45978;53.646;55.930;2022-11-20T01:58:48;100618.00;;;-6.38;73.47
60101;BME280;45978;53.646;55.930;2022-11-20T02:00:06;100591.50;;;-6.56;73.49
60101;BME280;45978;53.646;55.930;2022-11-20T02:01:13;100614.16;;;-6.46;74.13
60101;BME280;45978;53.646;55.930;2022-11-20T02:02:15;100612.41;;;-6.47;73.79
60101;BME280;45978;53.646;55.930;2022-11-20T02:03:19;100620.88;;;-6.48;73.89
60101;BME280;45978;53.646;55.930;2022-11-20T02:04:23;100620.63;;;-6.52;74.30
60101;BME280;45978;53.646;55.930;2022-11-20T02:05:35;100622.31;;;-6.53;73.59
60101;BME280;45978;53.646;55.930;2022-11-20T02:07:04;100613.84;;;-6.68;73.86
60101;BME280;45978;53.646;55.930;2022-11-20T02:08:06;100619.03;;;-6.67;74.04
60101;BME280;45978;53.646;55.930;2022-11-20T02:09:08;100617.03;;;-6.72;74.48
60101;BME280;45978;53.646;55.930;2022-11-20T02:10:09;100603.13;;;-6.78;75.25
60101;BME280;45978;53.646;55.930;2022-11-20T02:11:12;100598.03;;;-6.78;74.79
60101;BME280;45978;53.646;55.930;2022-11-20T02:12:14;100615.44;;;-6.70;75.10
60101;BME280;45978;53.646;55.930;2022-11-20T02:13:35;100617.72;;;-6.75;74.86
60101;BME280;45978;53.646;55.930;2022-11-20T02:14:46;100622.06;;;-6.74;74.85
60101;BME280;45978;53.646;55.930;2022-11-20T02:15:48;100613.75;;;-6.86;74.57
60101;BME280;45978;53.646;55.930;2022-11-20T02:16:50;100618.91;;;-6.85;75.38
60101;BME280;45978;53.646;55.930;2022-11-20T02:17:51;100621.47;;;-6.85;74.63
60101;BME280;45978;53.646;55.930;2022-11-20T02:18:56;100628.44;;;-6.82;75.79
60101;BME280;45978;53.646;55.930;2022-11-20T02:19:58;100609.72;;;-6.98;75.36
60101;BME280;45978;53.646;55.930;2022-11-20T02:21:20;100631.25;;;-6.92;75.57
60101;BME280;45978;53.646;55.930;2022-11-20T02:22:25;100631.09;;;-6.95;76.14
60101;BME280;45978;53.646;55.930;2022-11-20T02:23:37;100607.19;;;-7.12;75.13
60101;BME280;45978;53.646;55.930;2022-11-20T02:24:39;100615.81;;;-7.10;75.68
60101;BME280;45978;53.646;55.930;2022-11-20T02:25:41;100627.34;;;-7.02;75.89
60101;BME280;45978;53.646;55.930;2022-11-20T02:27:03;100637.38;;;-7.05;76.47
60101;BME280;45978;53.646;55.930;2022-11-20T02:28:06;100627.56;;;-7.14;75.40
60101;BME280;45978;53.646;55.930;2022-11-20T02:29:07;100627.13;;;-7.22;75.45
60101;BME280;45978;53.646;55.930;2022-11-20T02:30:09;100624.31;;;-7.26;76.16
60101;BME280;45978;53.646;55.930;2022-11-20T02:31:11;100636.38;;;-7.24;76.16
60101;BME280;45978;53.646;55.930;2022-11-20T02:32:33;100620.91;;;-7.42;76.10
60101;BME280;45978;53.646;55.930;2022-11-20T02:33:34;100623.53;;;-7.40;76.20
60101;BME280;45978;53.646;55.930;2022-11-20T02:34:37;100630.13;;;-7.44;75.72
60101;BME280;45978;53.646;55.930;2022-11-20T02:35:42;100637.38;;;-7.51;76.37
60101;BME280;45978;53.646;55.930;2022-11-20T02:36:46;100610.81;;;-7.70;76.15
60101;BME280;45978;53.646;55.930;2022-11-20T02:37:51;100623.66;;;-7.68;76.91
60101;BME280;45978;53.646;55.930;2022-11-20T02:38:58;100631.06;;;-7.73;76.27
60101;BME280;45978;53.646;55.930;2022-11-20T02:40:00;100627.09;;;-7.83;76.88
60101;BME280;45978;53.646;55.930;2022-11-20T02:41:04;100616.09;;;-7.97;76.93
60101;BME280;45978;53.646;55.930;2022-11-20T02:42:06;100622.59;;;-8.02;76.29
60101;BME280;45978;53.646;55.930;2022-11-20T02:43:08;100629.06;;;-8.07;76.83
60101;BME280;45978;53.646;55.930;2022-11-20T02:44:10;100620.81;;;-8.18;77.05
60101;BME280;45978;53.646;55.930;2022-11-20T02:45:12;100619.75;;;-8.21;77.14
60101;BME280;45978;53.646;55.930;2022-11-20T02:46:13;100612.50;;;-8.28;77.05
60101;BME280;45978;53.646;55.930;2022-11-20T02:47:14;100615.06;;;-8.28;77.06
60101;BME280;45978;53.646;55.930;2022-11-20T02:48:16;100618.50;;;-8.28;77.20
60101;BME280;45978;53.646;55.930;2022-11-20T02:49:17;100614.28;;;-8.27;77.76
60101;BME280;45978;53.646;55.930;2022-11-20T02:50:18;100593.19;;;-8.40;77.58
60101;BME280;45978;53.646;55.930;2022-11-20T02:51:20;100617.28;;;-8.20;78.14
60101;BME280;45978;53.646;55.930;2022-11-20T02:52:21;100608.78;;;-8.20;78.61
60101;BME280;45978;53.646;55.930;2022-11-20T02:53:24;100611.34;;;-8.20;78.52
60101;BME280;45978;53.646;55.930;2022-11-20T02:54:25;100607.88;;;-8.21;79.18
60101;BME280;45978;53.646;55.930;2022-11-20T02:55:27;100597.63;;;-8.22;79.59
60101;BME280;45978;53.646;55.930;2022-11-20T02:56:30;100616.94;;;-8.11;79.06
60101;BME280;45978;53.646;55.930;2022-11-20T02:57:31;100607.56;;;-8.12;79.84
60101;BME280;45978;53.646;55.930;2022-11-20T02:58:33;100594.53;;;-8.17;80.02
60101;BME280;45978;53.646;55.930;2022-11-20T02:59:34;100600.00;;;-8.10;79.54
60101;BME280;45978;53.646;55.930;2022-11-20T03:00:36;100610.56;;;-8.04;79.68
60101;BME280;45978;53.646;55.930;2022-11-20T03:01:38;100603.69;;;-8.05;79.98
60101;BME280;45978;53.646;55.930;2022-11-20T03:02:39;100601.84;;;-8.08;79.31
60101;BME280;45978;53.646;55.930;2022-11-20T03:03:41;100606.44;;;-8.02;79.71
60101;BME280;45978;53.646;55.930;2022-11-20T03:04:42;100602.81;;;-8.06;79.60
60101;BME280;45978;53.646;55.930;2022-11-20T03:05:43;100601.94;;;-8.06;79.40
60101;BME280;45978;53.646;55.930;2022-11-20T03:06:44;100587.78;;;-8.16;79.30
60101;BME280;45978;53.646;55.930;2022-11-20T03:07:46;100598.22;;;-8.11;79.41
60101;BME280;45978;53.646;55.930;2022-11-20T03:08:47;100597.00;;;-8.18;79.26
60101;BME280;45978;53.646;55.930;2022-11-20T03:09:49;100595.94;;;-8.22;79.19
60101;BME280;45978;53.646;55.930;2022-11-20T03:10:50;100586.53;;;-8.38;78.53
60101;BME280;45978;53.646;55.930;2022-11-20T03:11:52;100592.25;;;-8.42;78.29
60101;BME280;45978;53.646;55.930;2022-11-20T03:12:55;100583.69;;;-8.57;77.31
60101;BME280;45978;53.646;55.930;2022-11-20T03:13:56;100581.75;;;-8.61;78.18
60101;BME280;45978;53.646;55.930;2022-11-20T03:14:57;100580.59;;;-8.66;77.74
60101;BME280;45978;53.646;55.930;2022-11-20T03:16:14;100573.47;;;-8.72;78.28
60101;BME280;45978;53.646;55.930;2022-11-20T03:17:16;100569.31;;;-8.85;77.61
60101;BME280;45978;53.646;55.930;2022-11-20T03:18:17;100577.75;;;-8.99;77.18
60101;BME280;45978;53.646;55.930;2022-11-20T03:19:20;100565.75;;;-9.15;77.50
60101;BME280;45978;53.646;55.930;2022-11-20T03:20:22;100576.41;;;-9.21;77.19
60101;BME280;45978;53.646;55.930;2022-11-20T03:21:24;100578.41;;;-9.30;77.10
60101;BME280;45978;53.646;55.930;2022-11-20T03:22:29;100581.53;;;-9.34;77.01
60101;BME280;45978;53.646;55.930;2022-11-20T03:23:31;100592.91;;;-9.42;76.67
60101;BME280;45978;53.646;55.930;2022-11-20T03:24:33;100570.22;;;-9.66;76.66
60101;BME280;45978;53.646;55.930;2022-11-20T03:25:34;100578.34;;;-9.71;76.68
60101;BME280;45978;53.646;55.930;2022-11-20T03:26:36;100581.25;;;-9.79;76.56
60101;BME280;45978;53.646;55.930;2022-11-20T03:27:37;100583.56;;;-9.82;76.27
60101;BME280;45978;53.646;55.930;2022-11-20T03:28:42;100581.44;;;-9.89;76.32
60101;BME280;45978;53.646;55.930;2022-11-20T03:29:43;100580.13;;;-9.96;76.61
60101;BME280;45978;53.646;55.930;2022-11-20T03:30:46;100580.53;;;-10.03;76.42
60101;BME280;45978;53.646;55.930;2022-11-20T03:31:48;100584.44;;;-10.08;76.08
60101;BME280;45978;53.646;55.930;2022-11-20T03:32:54;100598.22;;;-10.04;76.44
60101;BME280;45978;53.646;55.930;2022-11-20T03:33:56;100590.31;;;-10.09;76.44
60101;BME280;45978;53.646;55.930;2022-11-20T03:34:58;100592.50;;;-10.13;75.83
60101;BME280;45978;53.646;55.930;2022-11-20T03:36:04;100575.72;;;-10.25;76.02
60101;BME280;45978;53.646;55.930;2022-11-20T03:37:06;100578.16;;;-10.26;76.39
60101;BME280;45978;53.646;55.930;2022-11-20T03:38:08;100582.06;;;-10.31;75.98
60101;BME280;45978;53.646;55.930;2022-11-20T03:39:10;100586.25;;;-10.32;76.30
60101;BME280;45978;53.646;55.930;2022-11-20T03:40:15;100574.72;;;-10.40;76.58
60101;BME280;45978;53.646;55.930;2022-11-20T03:41:22;100577.91;;;-10.43;76.12
60101;BME280;45978;53.646;55.930;2022-11-20T03:42:24;100576.28;;;-10.42;75.79
60101;BME280;45978;53.646;55.930;2022-11-20T03:43:55;100590.31;;;-10.47;76.19
60101;BME280;45978;53.646;55.930;2022-11-20T03:44:57;100576.69;;;-10.61;76.73
60101;BME280;45978;53.646;55.930;2022-11-20T03:45:59;100580.66;;;-10.65;76.43
60101;BME280;45978;53.646;55.930;2022-11-20T03:47:00;100572.47;;;-10.74;76.37
60101;BME280;45978;53.646;55.930;2022-11-20T03:48:02;100571.66;;;-10.73;76.15
60101;BME280;45978;53.646;55.930;2022-11-20T03:49:04;100591.50;;;-10.67;76.52
60101;BME280;45978;53.646;55.930;2022-11-20T03:50:06;100590.28;;;-10.72;76.77
60101;BME280;45978;53.646;55.930;2022-11-20T03:51:12;100591.84;;;-10.74;77.03
60101;BME280;45978;53.646;55.930;2022-11-20T03:52:13;100593.41;;;-10.77;76.62
60101;BME280;45978;53.646;55.930;2022-11-20T03:53:16;100592.53;;;-10.77;76.33
60101;BME280;45978;53.646;55.930;2022-11-20T03:54:18;100587.22;;;-10.80;76.95
60101;BME280;45978;53.646;55.930;2022-11-20T03:55:19;100582.84;;;-10.83;76.50
60101;BME280;45978;53.646;55.930;2022-11-20T03:56:24;100581.97;;;-10.83;76.79
60101;BME280;45978;53.646;55.930;2022-11-20T03:57:25;100584.81;;;-10.79;76.53
60101;BME280;45978;53.646;55.930;2022-11-20T03:58:28;100582.38;;;-10.77;76.68
60101;BME280;45978;53.646;55.930;2022-11-20T03:59:29;100572.91;;;-10.80;76.54
60101;BME280;45978;53.646;55.930;2022-11-20T04:00:30;100563.88;;;-10.88;76.32
60101;BME280;45978;53.646;55.930;2022-11-20T04:01:34;100569.59;;;-10.79;77.25
60101;BME280;45978;53.646;55.930;2022-11-20T04:02:36;100578.00;;;-10.80;76.97
60101;BME280;45978;53.646;55.930;2022-11-20T04:03:38;100574.25;;;-10.85;76.86
60101;BME280;45978;53.646;55.930;2022-11-20T04:04:40;100558.38;;;-10.94;77.09
60101;BME280;45978;53.646;55.930;2022-11-20T04:05:41;100564.38;;;-10.93;77.23
60101;BME280;45978;53.646;55.930;2022-11-20T04:06:43;100557.09;;;-11.01;76.42
60101;BME280;45978;53.646;55.930;2022-11-20T04:07:44;100567.47;;;-10.98;77.08
60101;BME280;45978;53.646;55.930;2022-11-20T04:08:46;100570.72;;;-10.87;76.81
60101;BME280;45978;53.646;55.930;2022-11-20T04:09:47;100534.56;;;-10.96;77.15
60101;BME280;45978;53.646;55.930;2022-11-20T04:10:49;100570.00;;;-10.72;77.69
60101;BME280;45978;53.646;55.930;2022-11-20T04:11:53;100559.72;;;-10.87;77.84
60101;BME280;45978;53.646;55.930;2022-11-20T04:12:55;100553.31;;;-10.94;77.56
60101;BME280;45978;53.646;55.930;2022-11-20T04:14:01;100573.56;;;-10.82;77.88
60101;BME280;45978;53.646;55.930;2022-11-20T04:15:03;100574.25;;;-10.85;76.50
60101;BME280;45978;53.646;55.930;2022-11-20T04:16:05;100552.03;;;-11.01;76.68
60101;BME280;45978;53.646;55.930;2022-11-20T04:17:07;100577.47;;;-10.87;77.17
60101;BME280;45978;53.646;55.930;2022-11-20T04:18:08;100558.38;;;-10.94;76.77
60101;BME280;45978;53.646;55.930;2022-11-20T04:19:12;100564.81;;;-10.99;76.90
60101;BME280;45978;53.646;55.930;2022-11-20T04:20:14;100555.25;;;-11.03;76.67
60101;BME280;45978;53.646;55.930;2022-11-20T04:21:15;100557.09;;;-11.01;76.37
60101;BME280;45978;53.646;55.930;2022-11-20T04:22:17;100566.00;;;-10.94;77.29
60101;BME280;45978;53.646;55.930;2022-11-20T04:23:18;100581.75;;;-10.86;77.35
60101;BME280;45978;53.646;55.930;2022-11-20T04:24:19;100557.63;;;-10.93;77.03
60101;BME280;45978;53.646;55.930;2022-11-20T04:25:20;100580.59;;;-10.78;77.00
60101;BME280;45978;53.646;55.930;2022-11-20T04:26:24;100547.03;;;-10.87;76.34
60101;BME280;45978;53.646;55.930;2022-11-20T04:27:25;100569.25;;;-10.71;76.93
60101;BME280;45978;53.646;55.930;2022-11-20T04:28:27;100554.78;;;-10.72;77.16
60101;BME280;45978;53.646;55.930;2022-11-20T04:29:28;100543.00;;;-10.72;76.63
60101;BME280;45978;53.646;55.930;2022-11-20T04:30:30;100546.81;;;-10.65;75.99
60101;BME280;45978;53.646;55.930;2022-11-20T04:31:33;100558.66;;;-10.52;76.27
60101;BME280;45978;53.646;55.930;2022-11-20T04:32:36;100555.25;;;-10.53;76.21
60101;BME280;45978;53.646;55.930;2022-11-20T04:33:38;100560.72;;;-10.47;75.34
60101;BME280;45978;53.646;55.930;2022-11-20T04:34:40;100547.06;;;-10.49;76.43
60101;BME280;45978;53.646;55.930;2022-11-20T04:35:41;100538.78;;;-10.46;76.23
60101;BME280;45978;53.646;55.930;2022-11-20T04:36:43;100550.63;;;-10.20;75.77
60101;BME280;45978;53.646;55.930;2022-11-20T04:37:44;100539.41;;;-9.84;75.45
60101;BME280;45978;53.646;55.930;2022-11-20T04:38:50;100536.84;;;-9.30;75.68
60101;BME280;45978;53.646;55.930;2022-11-20T04:39:51;100552.66;;;-8.51;75.03
60101;BME280;45978;53.646;55.930;2022-11-20T04:40:56;100541.41;;;-7.81;74.71
60101;BME280;45978;53.646;55.930;2022-11-20T04:41:59;100524.53;;;-7.16;72.55
60101;BME280;45978;53.646;55.930;2022-11-20T04:43:18;100527.47;;;-6.43;70.57
60101;BME280;45978;53.646;55.930;2022-11-20T04:44:20;100530.38;;;-5.83;68.79
60101;BME280;45978;53.646;55.930;2022-11-20T04:45:24;100522.97;;;-5.23;66.61
60101;BME280;45978;53.646;55.930;2022-11-20T04:46:27;100531.19;;;-4.53;64.88
60101;BME280;45978;53.646;55.930;2022-11-20T04:47:34;100534.50;;;-3.94;63.40
60101;BME280;45978;53.646;55.930;2022-11-20T04:48:35;100512.50;;;-3.46;62.36
60101;BME280;45978;53.646;55.930;2022-11-20T04:49:36;100498.91;;;-3.21;59.91
60101;BME280;45978;53.646;55.930;2022-11-20T04:50:40;100522.78;;;-2.76;58.36
60101;BME280;45978;53.646;55.930;2022-11-20T04:51:41;100504.44;;;-2.63;56.47
60101;BME280;45978;53.646;55.930;2022-11-20T04:52:42;100513.03;;;-2.37;55.35
60101;BME280;45978;53.646;55.930;2022-11-20T04:53:44;100495.03;;;-2.37;54.55
60101;BME280;45978;53.646;55.930;2022-11-20T04:54:45;100501.38;;;-2.02;54.65
60101;BME280;45978;53.646;55.930;2022-11-20T04:55:46;100510.53;;;-1.57;54.89
60101;BME280;45978;53.646;55.930;2022-11-20T04:56:48;100506.84;;;-1.36;53.06
60101;BME280;45978;53.646;55.930;2022-11-20T04:57:50;100512.72;;;-1.13;52.29
60101;BME280;45978;53.646;55.930;2022-11-20T04:58:52;100504.81;;;-0.89;51.66
60101;BME280;45978;53.646;55.930;2022-11-20T04:59:56;100498.84;;;-0.87;51.12
60101;BME280;45978;53.646;55.930;2022-11-20T05:01:15;100500.56;;;-0.57;49.78
60101;BME280;45978;53.646;55.930;2022-11-20T05:02:17;100515.28;;;-0.21;50.31
60101;BME280;45978;53.646;55.930;2022-11-20T05:03:20;100507.31;;;0.05;50.05
60101;BME280;45978;53.646;55.930;2022-11-20T05:04:22;100505.38;;;0.31;50.12
60101;BME280;45978;53.646;55.930;2022-11-20T05:05:23;100512.94;;;0.59;50.05
60101;BME280;45978;53.646;55.930;2022-11-20T05:06:25;100505.41;;;0.70;48.71
60101;BME280;45978;53.646;55.930;2022-11-20T05:07:26;100503.75;;;0.74;47.37
60101;BME280;45978;53.646;55.930;2022-11-20T05:08:28;100509.16;;;0.83;47.53
60101;BME280;45978;53.646;55.930;2022-11-20T05:09:30;100503.28;;;0.92;47.53
60101;BME280;45978;53.646;55.930;2022-11-20T05:10:32;100504.59;;;1.12;46.16
60101;BME280;45978;53.646;55.930;2022-11-20T05:11:33;100515.22;;;1.28;45.61
60101;BME280;45978;53.646;55.930;2022-11-20T05:12:35;100495.50;;;1.33;46.65
60101;BME280;45978;53.646;55.930;2022-11-20T05:13:37;100493.34;;;1.54;46.34
60101;BME280;45978;53.646;55.930;2022-11-20T05:14:38;100492.88;;;1.77;45.29
60101;BME280;45978;53.646;55.930;2022-11-20T05:15:40;100495.59;;;1.83;44.15
60101;BME280;45978;53.646;55.930;2022-11-20T05:16:42;100499.53;;;2.13;44.83
60101;BME280;45978;53.646;55.930;2022-11-20T05:17:51;100493.81;;;2.32;43.37
60101;BME280;45978;53.646;55.930;2022-11-20T05:18:54;100504.25;;;2.38;43.45
60101;BME280;45978;53.646;55.930;2022-11-20T05:19:55;100494.59;;;2.30;42.74
60101;BME280;45978;53.646;55.930;2022-11-20T05:20:57;100496.63;;;2.46;42.35
60101;BME280;45978;53.646;55.930;2022-11-20T05:21:59;100503.00;;;2.70;42.05
60101;BME280;45978;53.646;55.930;2022-11-20T05:23:00;100498.28;;;3.07;42.30
60101;BME280;45978;53.646;55.930;2022-11-20T05:24:02;100474.88;;;3.02;41.04
60101;BME280;45978;53.646;55.930;2022-11-20T05:25:03;100499.47;;;3.32;40.92
60101;BME280;45978;53.646;55.930;2022-11-20T05:26:07;100495.47;;;3.62;40.70
60101;BME280;45978;53.646;55.930;2022-11-20T05:27:10;100484.31;;;3.70;39.79
60101;BME280;45978;53.646;55.930;2022-11-20T05:28:12;100498.06;;;3.60;39.23
60101;BME280;45978;53.646;55.930;2022-11-20T05:29:14;100493.81;;;3.70;39.33
60101;BME280;45978;53.646;55.930;2022-11-20T05:30:15;100490.19;;;3.54;38.63
60101;BME280;45978;53.646;55.930;2022-11-20T05:31:21;100494.69;;;3.69;39.47